createdAt,value
2024-02-20T00:02:09.374Z,90.70
2024-02-20T00:04:37.025Z,91.00
2024-02-20T00:07:05.100Z,90.70
2024-02-20T00:09:32.589Z,90.70
2024-02-20T00:12:01.532Z,90.70
2024-02-20T00:14:29.174Z,91.10
2024-02-20T00:16:56.648Z,90.70
2024-02-20T00:19:24.204Z,90.60
2024-02-20T00:21:51.703Z,90.60
2024-02-20T00:24:19.282Z,90.50
2024-02-20T00:26:46.835Z,91.00
2024-02-20T00:29:14.335Z,90.40
2024-02-20T00:31:41.989Z,90.90
2024-02-20T00:34:09.556Z,90.60
2024-02-20T00:36:37.047Z,90.80
2024-02-20T00:39:04.881Z,90.90
2024-02-20T00:41:32.785Z,90.80
2024-02-20T00:44:00.244Z,91.00
2024-02-20T00:46:27.758Z,90.70
2024-02-20T00:48:57.121Z,90.70
2024-02-20T00:51:24.657Z,90.80
2024-02-20T00:53:52.680Z,91.00
2024-02-20T00:56:20.491Z,90.90
2024-02-20T00:58:48.207Z,91.00
2024-02-20T01:01:16.333Z,90.90
2024-02-20T01:03:44.392Z,91.00
2024-02-20T01:06:12.748Z,90.80
2024-02-20T01:08:41.493Z,91.00
2024-02-20T01:11:09.010Z,91.00
2024-02-20T01:13:36.722Z,91.20
2024-02-20T01:16:04.272Z,91.70
2024-02-20T01:18:32.128Z,91.40
2024-02-20T01:20:59.582Z,91.50
2024-02-20T01:23:27.050Z,91.50
2024-02-20T01:25:54.815Z,91.70
2024-02-20T01:28:22.351Z,91.80
2024-02-20T01:30:49.848Z,91.90
2024-02-20T01:33:17.376Z,91.90
2024-02-20T01:35:45.097Z,91.70
2024-02-20T01:38:13.726Z,92.10
2024-02-20T01:40:41.477Z,92.10
2024-02-20T01:43:09.570Z,91.80
2024-02-20T01:45:37.010Z,91.80
2024-02-20T01:48:05.710Z,92.20
2024-02-20T01:50:35.734Z,92.00
2024-02-20T01:53:04.903Z,92.00
2024-02-20T01:55:34.651Z,92.10
2024-02-20T01:58:02.797Z,91.90
2024-02-20T02:00:30.537Z,92.40
2024-02-20T02:02:58.411Z,91.90
2024-02-20T02:05:26.036Z,91.80
2024-02-20T02:07:55.622Z,92.00
2024-02-20T02:10:23.180Z,92.10
2024-02-20T02:12:50.800Z,92.10
2024-02-20T02:15:18.357Z,92.10
2024-02-20T02:17:45.889Z,92.10
2024-02-20T02:20:13.445Z,92.00
2024-02-20T02:22:40.925Z,92.20
2024-02-20T02:25:08.989Z,92.40
2024-02-20T02:27:38.940Z,92.40
2024-02-20T02:30:07.291Z,92.20
2024-02-20T02:32:34.823Z,92.40
2024-02-20T02:35:03.609Z,92.20
2024-02-20T02:37:32.834Z,92.40
2024-02-20T02:40:00.376Z,91.90
2024-02-20T02:42:28.094Z,92.10
2024-02-20T02:44:55.535Z,92.00
2024-02-20T02:47:22.959Z,92.20
2024-02-20T02:49:50.539Z,92.00
2024-02-20T02:52:18.185Z,92.10
2024-02-20T02:54:45.659Z,92.50
2024-02-20T02:57:13.266Z,92.20
2024-02-20T02:59:40.943Z,92.00
2024-02-20T03:02:11.988Z,92.00
2024-02-20T03:04:40.019Z,91.80
2024-02-20T03:07:07.781Z,91.80
2024-02-20T03:09:35.255Z,91.70
2024-02-20T03:12:03.082Z,92.40
2024-02-20T03:14:30.624Z,92.10
2024-02-20T03:16:58.070Z,92.20
2024-02-20T03:19:25.541Z,92.00
2024-02-20T03:21:53.598Z,92.10
2024-02-20T03:24:22.153Z,91.80
2024-02-20T03:26:50.010Z,91.90
2024-02-20T03:29:17.599Z,92.30
2024-02-20T03:31:45.263Z,92.30
2024-02-20T03:34:12.787Z,92.10
2024-02-20T03:36:40.392Z,92.40
2024-02-20T03:39:08.658Z,92.30
2024-02-20T03:41:36.107Z,92.30
2024-02-20T03:44:03.613Z,92.20
2024-02-20T03:46:31.424Z,92.20
2024-02-20T03:48:59.414Z,92.30
2024-02-20T03:51:27.332Z,92.40
2024-02-20T03:53:54.639Z,92.40
2024-02-20T03:56:22.067Z,92.60
2024-02-20T03:58:49.325Z,92.40
2024-02-20T04:01:16.856Z,92.70
2024-02-20T04:03:45.284Z,92.60
2024-02-20T04:06:12.842Z,92.70
2024-02-20T04:08:40.325Z,92.50
2024-02-20T04:11:07.819Z,92.70
2024-02-20T04:13:35.408Z,93.00
2024-02-20T04:16:03.195Z,93.30
2024-02-20T04:18:30.765Z,93.60
2024-02-20T04:20:58.320Z,94.20
2024-02-20T04:23:26.296Z,95.10
2024-02-20T04:25:53.740Z,95.60
2024-02-20T04:28:21.411Z,96.30
2024-02-20T04:30:48.972Z,97.00
2024-02-20T04:33:16.543Z,97.90
2024-02-20T04:35:44.062Z,98.70
2024-02-20T04:38:12.231Z,99.40
2024-02-20T04:40:39.855Z,99.80
2024-02-20T04:43:07.668Z,99.90
2024-02-20T04:45:35.262Z,99.90
2024-02-20T04:48:02.839Z,99.90
2024-02-20T04:50:30.376Z,99.90
2024-02-20T04:52:57.771Z,99.90
2024-02-20T04:55:28.111Z,99.90
2024-02-20T04:57:55.722Z,99.90
2024-02-20T05:00:23.208Z,99.90
2024-02-20T05:02:50.792Z,99.90
2024-02-20T05:05:18.437Z,99.90
2024-02-20T05:07:46.200Z,99.90
2024-02-20T05:10:13.790Z,99.90
2024-02-20T05:12:45.010Z,99.90
2024-02-20T05:15:12.596Z,99.90
2024-02-20T05:17:40.139Z,99.90
2024-02-20T05:20:08.780Z,99.90
2024-02-20T05:22:36.323Z,99.90
2024-02-20T05:25:04.044Z,99.90
2024-02-20T05:27:31.509Z,99.90
2024-02-20T05:29:58.933Z,99.90
2024-02-20T05:32:26.314Z,99.90
2024-02-20T05:34:53.909Z,99.90
2024-02-20T05:37:21.377Z,99.90
2024-02-20T05:39:48.799Z,99.90
2024-02-20T05:42:16.404Z,99.90
2024-02-20T05:44:43.857Z,99.90
2024-02-20T05:47:11.723Z,99.90
2024-02-20T05:49:39.575Z,99.90
2024-02-20T05:52:07.526Z,99.90
2024-02-20T05:54:34.993Z,99.90
2024-02-20T05:57:02.729Z,99.90
2024-02-20T05:59:30.536Z,99.90
2024-02-20T06:01:58.073Z,99.90
2024-02-20T06:04:25.683Z,99.90
2024-02-20T06:06:53.336Z,99.90
2024-02-20T06:09:20.813Z,99.90
2024-02-20T06:11:49.298Z,99.90
2024-02-20T06:14:17.533Z,99.90
2024-02-20T06:16:45.004Z,99.90
2024-02-20T06:19:12.646Z,99.90
2024-02-20T06:21:42.074Z,99.90
2024-02-20T06:24:09.595Z,99.90
2024-02-20T06:26:37.040Z,99.90
2024-02-20T06:29:06.138Z,99.90
2024-02-20T06:31:36.261Z,99.90
2024-02-20T06:34:05.541Z,99.90
2024-02-20T06:36:35.158Z,99.90
2024-02-20T06:39:04.397Z,99.90
2024-02-20T06:41:31.707Z,99.90
2024-02-20T06:43:59.176Z,99.90
2024-02-20T06:46:27.851Z,99.90
2024-02-20T06:48:55.572Z,99.90
2024-02-20T06:51:24.856Z,99.90
2024-02-20T06:53:52.198Z,99.90
2024-02-20T06:56:19.670Z,99.90
2024-02-20T06:58:47.360Z,99.90
2024-02-20T07:01:14.888Z,99.90
2024-02-20T07:03:42.787Z,99.90
2024-02-20T07:06:10.433Z,99.90
2024-02-20T07:08:38.154Z,99.90
2024-02-20T07:11:08.395Z,99.90
2024-02-20T07:13:39.562Z,99.90
2024-02-20T07:16:07.761Z,99.90
2024-02-20T07:18:38.331Z,99.90
2024-02-20T07:21:05.738Z,99.90
2024-02-20T07:23:33.081Z,99.90
2024-02-20T07:26:00.704Z,99.90
2024-02-20T07:28:28.155Z,99.90
2024-02-20T07:30:55.690Z,99.90
2024-02-20T07:33:31.138Z,99.90
2024-02-20T07:36:05.304Z,99.90
2024-02-20T07:38:33.014Z,99.90
2024-02-20T07:41:04.953Z,99.90
2024-02-20T07:43:34.156Z,99.90
2024-02-20T07:46:03.828Z,99.90
2024-02-20T07:48:31.475Z,99.90
2024-02-20T07:50:59.312Z,99.90
2024-02-20T07:53:26.896Z,99.90
2024-02-20T07:55:57.517Z,99.90
2024-02-20T07:58:34.291Z,99.90
2024-02-20T08:01:11.391Z,99.90
2024-02-20T08:03:39.059Z,99.90
2024-02-20T08:06:06.737Z,99.90
2024-02-20T08:08:34.231Z,99.90
2024-02-20T08:11:02.012Z,99.90
2024-02-20T08:13:29.391Z,99.90
2024-02-20T08:16:00.172Z,99.90
2024-02-20T08:18:27.851Z,99.90
2024-02-20T08:20:55.641Z,99.90
2024-02-20T08:23:23.096Z,99.90
2024-02-20T08:25:50.991Z,99.90
2024-02-20T08:28:18.757Z,99.90
2024-02-20T08:30:47.316Z,99.90
2024-02-20T08:33:16.359Z,99.90
2024-02-20T08:35:44.778Z,99.90
2024-02-20T08:38:12.217Z,99.90
2024-02-20T08:40:39.956Z,99.90
2024-02-20T08:43:07.603Z,99.90
2024-02-20T08:45:35.054Z,99.90
2024-02-20T08:48:03.054Z,99.90
2024-02-20T08:50:30.668Z,99.90
2024-02-20T08:52:58.130Z,99.90
2024-02-20T08:55:25.727Z,99.90
2024-02-20T08:57:53.154Z,99.90
2024-02-20T09:00:23.254Z,99.90
2024-02-20T09:02:50.702Z,99.90
2024-02-20T09:05:18.499Z,99.90
2024-02-20T09:07:45.976Z,99.90
2024-02-20T09:10:13.529Z,99.90
2024-02-20T09:12:41.034Z,99.90
2024-02-20T09:15:09.022Z,99.90
2024-02-20T09:17:36.710Z,99.90
2024-02-20T09:20:04.613Z,99.90
2024-02-20T09:22:32.234Z,99.90
2024-02-20T09:24:59.829Z,99.90
2024-02-20T09:27:27.312Z,99.90
2024-02-20T09:29:54.624Z,99.90
2024-02-20T09:32:22.158Z,99.90
2024-02-20T09:34:49.562Z,99.90
2024-02-20T09:37:17.032Z,99.90
2024-02-20T09:39:44.588Z,99.90
2024-02-20T09:42:26.108Z,99.90
2024-02-20T09:44:56.069Z,99.90
2024-02-20T09:47:23.890Z,99.90
2024-02-20T09:49:52.288Z,99.90
2024-02-20T09:52:23.520Z,99.90
2024-02-20T09:54:51.848Z,99.90
2024-02-20T09:57:19.512Z,99.90
2024-02-20T09:59:47.092Z,99.90
2024-02-20T10:02:32.695Z,99.90
2024-02-20T10:05:01.785Z,99.90
2024-02-20T10:07:29.327Z,99.90
2024-02-20T10:09:57.158Z,99.90
2024-02-20T10:12:25.488Z,99.90
2024-02-20T10:14:53.024Z,99.90
2024-02-20T10:17:20.657Z,99.90
2024-02-20T10:19:48.212Z,99.90
2024-02-20T10:22:25.725Z,99.90
2024-02-20T10:25:07.136Z,99.90
2024-02-20T10:27:35.844Z,99.90
2024-02-20T10:30:08.954Z,99.90
2024-02-20T10:32:38.297Z,99.90
2024-02-20T10:35:08.882Z,99.90
2024-02-20T10:37:37.041Z,99.90
2024-02-20T10:40:27.738Z,99.90
2024-02-20T10:43:00.006Z,99.90
2024-02-20T10:45:28.892Z,99.90
2024-02-20T10:47:58.648Z,99.90
2024-02-20T10:50:27.427Z,99.90
2024-02-20T10:52:55.879Z,99.90
2024-02-20T10:55:32.180Z,99.90
2024-02-20T10:58:05.381Z,99.90
2024-02-20T11:00:39.389Z,99.90
2024-02-20T11:03:10.046Z,99.90
2024-02-20T11:05:37.945Z,99.90
2024-02-20T11:08:11.263Z,99.90
2024-02-20T11:10:40.739Z,99.90
2024-02-20T11:13:29.066Z,99.90
2024-02-20T11:15:56.686Z,99.90
2024-02-20T11:18:26.431Z,99.90
2024-02-20T11:21:07.949Z,99.90
2024-02-20T11:23:38.914Z,99.90
2024-02-20T11:26:12.663Z,99.90
2024-02-20T11:28:40.688Z,99.90
2024-02-20T11:31:09.012Z,99.90
2024-02-20T11:33:37.315Z,99.90
2024-02-20T11:36:08.315Z,99.90
2024-02-20T11:38:37.853Z,99.90
2024-02-20T11:41:09.432Z,99.90
2024-02-20T11:43:38.018Z,99.90
2024-02-20T11:46:05.750Z,99.90
2024-02-20T11:48:34.935Z,99.90
2024-02-20T11:51:02.836Z,99.90
2024-02-20T11:53:30.622Z,99.90
2024-02-20T11:55:59.707Z,99.90
2024-02-20T11:58:29.391Z,99.90
2024-02-20T12:01:08.063Z,99.90
2024-02-20T12:03:37.824Z,99.90
2024-02-20T12:06:09.124Z,99.90
2024-02-20T12:08:43.854Z,99.90
2024-02-20T12:11:18.935Z,99.90
2024-02-20T12:13:48.348Z,99.90
2024-02-20T12:16:31.784Z,99.90
2024-02-20T12:21:30.792Z,99.90
2024-02-20T12:24:00.242Z,99.90
2024-02-20T12:26:28.767Z,99.90
2024-02-20T12:28:57.183Z,99.90
2024-02-20T12:31:32.269Z,99.90
2024-02-20T12:34:01.545Z,99.90
2024-02-20T12:36:32.781Z,99.90
2024-02-20T12:39:03.708Z,99.90
2024-02-20T12:41:32.463Z,99.90
2024-02-20T12:44:00.218Z,99.90
2024-02-20T12:46:27.584Z,99.90
2024-02-20T12:48:56.462Z,99.90
2024-02-20T12:51:25.644Z,99.90
2024-02-20T12:53:53.174Z,99.90
2024-02-20T12:56:20.715Z,99.90
2024-02-20T12:58:48.321Z,99.90
2024-02-20T13:01:16.674Z,99.90
2024-02-20T13:03:44.530Z,99.90
2024-02-20T13:06:12.240Z,99.90
2024-02-20T13:08:39.723Z,99.90
2024-02-20T13:11:08.378Z,99.90
2024-02-20T13:13:36.145Z,99.90
2024-02-20T13:16:03.976Z,99.90
2024-02-20T13:18:31.488Z,99.90
2024-02-20T13:21:02.542Z,99.90
2024-02-20T13:23:29.934Z,99.90
2024-02-20T13:25:57.495Z,99.90
2024-02-20T13:28:27.653Z,99.90
2024-02-20T13:30:55.175Z,99.90
2024-02-20T13:33:23.131Z,99.90
2024-02-20T13:35:51.004Z,99.90
2024-02-20T13:38:18.502Z,99.90
2024-02-20T13:40:46.618Z,99.90
2024-02-20T13:43:14.259Z,99.90
2024-02-20T13:45:49.210Z,99.90
2024-02-20T13:48:18.698Z,99.90
2024-02-20T13:50:47.919Z,99.90
2024-02-20T13:53:16.304Z,99.90
2024-02-20T13:55:53.853Z,99.90
2024-02-20T13:58:26.099Z,99.90
2024-02-20T14:00:54.126Z,99.90
2024-02-20T14:03:21.726Z,99.90
2024-02-20T14:05:49.395Z,99.90
2024-02-20T14:08:16.902Z,99.90
2024-02-20T14:10:46.482Z,99.90
2024-02-20T14:13:14.252Z,99.90
2024-02-20T14:15:41.873Z,99.90
2024-02-20T14:18:09.367Z,99.90
2024-02-20T14:20:36.927Z,99.90
2024-02-20T14:23:05.958Z,99.90
2024-02-20T14:25:34.011Z,99.90
2024-02-20T14:28:02.675Z,99.90
2024-02-20T14:30:33.501Z,99.90
2024-02-20T14:33:05.908Z,99.90
2024-02-20T14:35:33.591Z,99.90
2024-02-20T14:38:01.092Z,99.90
2024-02-20T14:40:28.542Z,99.90
2024-02-20T14:42:55.955Z,99.90
2024-02-20T14:45:23.516Z,99.90
2024-02-20T14:47:51.720Z,99.90
2024-02-20T14:50:20.674Z,99.90
2024-02-20T14:52:48.489Z,99.90
2024-02-20T14:55:18.061Z,99.90
2024-02-20T14:57:49.112Z,99.90
2024-02-20T15:00:17.876Z,99.90
2024-02-20T15:02:45.581Z,99.90
2024-02-20T15:05:14.331Z,99.90
2024-02-20T15:07:42.276Z,99.90
2024-02-20T15:10:11.383Z,99.90
2024-02-20T15:12:38.981Z,99.90
2024-02-20T15:15:08.097Z,99.90
2024-02-20T15:17:35.508Z,99.90
2024-02-20T15:20:04.765Z,99.90
2024-02-20T15:22:34.822Z,99.90
2024-02-20T15:25:02.514Z,99.90
2024-02-20T15:27:30.075Z,99.90
2024-02-20T15:29:58.427Z,99.90
2024-02-20T15:32:25.900Z,99.90
2024-02-20T15:34:53.862Z,99.90
2024-02-20T15:37:21.704Z,99.90
2024-02-20T15:39:49.330Z,99.90
2024-02-20T15:42:22.062Z,99.90
2024-02-20T15:44:49.527Z,99.90
2024-02-20T15:47:18.664Z,99.90
2024-02-20T15:49:47.479Z,99.90
2024-02-20T15:52:18.980Z,99.90
2024-02-20T15:54:47.319Z,99.90
2024-02-20T15:57:14.880Z,99.90
2024-02-20T15:59:42.379Z,99.90
2024-02-20T16:02:09.847Z,99.90
2024-02-20T16:04:37.502Z,99.90
2024-02-20T16:07:05.285Z,99.90
2024-02-20T16:09:33.131Z,99.90
2024-02-20T16:12:01.328Z,99.90
2024-02-20T16:14:28.886Z,99.90
2024-02-20T16:16:56.429Z,99.90
2024-02-20T16:19:24.090Z,99.90
2024-02-20T16:21:51.475Z,99.90
2024-02-20T16:24:19.750Z,99.90
2024-02-20T16:26:49.252Z,99.90
2024-02-20T16:29:16.713Z,99.90
2024-02-20T16:31:50.966Z,99.90
2024-02-20T16:34:21.115Z,99.90
2024-02-20T16:36:49.616Z,99.90
2024-02-20T16:39:17.174Z,99.90
2024-02-20T16:41:45.096Z,99.90
2024-02-20T16:44:13.671Z,99.90
2024-02-20T16:46:41.149Z,99.90
2024-02-20T16:49:08.688Z,99.90
2024-02-20T16:51:36.195Z,99.90
2024-02-20T16:54:03.601Z,99.90
2024-02-20T16:56:33.667Z,99.90
2024-02-20T16:59:01.322Z,99.90
2024-02-20T17:01:29.370Z,99.90
2024-02-20T17:03:56.842Z,99.90
2024-02-20T17:06:24.322Z,99.90
2024-02-20T17:08:53.235Z,99.90
2024-02-20T17:11:20.545Z,99.90
2024-02-20T17:13:48.230Z,99.90
2024-02-20T17:16:15.784Z,99.90
2024-02-20T17:18:43.303Z,99.90
2024-02-20T17:21:14.046Z,99.90
2024-02-20T17:23:41.545Z,99.90
2024-02-20T17:26:09.172Z,99.90
2024-02-20T17:28:36.935Z,99.90
2024-02-20T17:31:05.745Z,99.90
2024-02-20T17:33:33.443Z,99.90
2024-02-20T17:36:02.733Z,99.90
2024-02-20T17:38:30.229Z,99.90
2024-02-20T17:40:57.992Z,99.90
2024-02-20T17:43:25.897Z,99.90
2024-02-20T17:45:53.441Z,99.90
2024-02-20T17:48:20.929Z,99.90
2024-02-20T17:50:48.558Z,99.90
2024-02-20T17:53:16.095Z,99.90
2024-02-20T17:55:43.737Z,99.90
2024-02-20T17:58:11.293Z,99.90
2024-02-20T18:00:38.796Z,99.90
2024-02-20T18:03:06.780Z,99.90
2024-02-20T18:05:34.469Z,99.90
2024-02-20T18:08:02.130Z,99.90
2024-02-20T18:10:29.794Z,99.90
2024-02-20T18:12:57.413Z,99.90
2024-02-20T18:15:24.865Z,99.90
2024-02-20T18:17:52.458Z,99.90
2024-02-20T18:20:20.211Z,99.90
2024-02-20T18:22:48.728Z,99.90
2024-02-20T18:25:16.792Z,99.90
2024-02-20T18:27:44.201Z,99.90
2024-02-20T18:30:11.759Z,99.90
2024-02-20T18:32:39.567Z,99.90
2024-02-20T18:35:07.841Z,99.90
2024-02-20T18:37:35.610Z,99.90
2024-02-20T18:40:03.747Z,99.90
2024-02-20T18:42:31.646Z,99.90
2024-02-20T18:44:58.950Z,99.90
2024-02-20T18:47:26.602Z,99.90
2024-02-20T18:49:54.222Z,99.90
2024-02-20T18:52:21.934Z,99.90
2024-02-20T18:54:51.168Z,99.90
2024-02-20T18:57:18.953Z,99.90
2024-02-20T18:59:46.343Z,99.90
2024-02-20T19:02:22.565Z,99.90
2024-02-20T19:04:57.365Z,99.90
2024-02-20T19:07:25.367Z,99.90
2024-02-20T19:09:53.249Z,99.90
2024-02-20T19:12:23.177Z,99.90
2024-02-20T19:14:51.295Z,99.90
2024-02-20T19:17:19.110Z,99.90
2024-02-20T19:19:46.832Z,99.90
2024-02-20T19:22:14.547Z,99.90
2024-02-20T19:24:45.141Z,99.90
2024-02-20T19:27:12.603Z,99.90
2024-02-20T19:29:40.125Z,99.90
2024-02-20T19:32:07.873Z,99.90
2024-02-20T19:34:37.229Z,99.90
2024-02-20T19:37:05.799Z,99.90
2024-02-20T19:39:33.308Z,99.90
2024-02-20T19:42:00.770Z,99.90
2024-02-20T19:44:28.286Z,99.90
2024-02-20T19:46:59.901Z,99.90
2024-02-20T19:49:27.818Z,99.90
2024-02-20T19:51:55.365Z,99.90
2024-02-20T19:54:22.966Z,99.90
2024-02-20T19:56:50.526Z,99.90
2024-02-20T19:59:18.016Z,99.90
2024-02-20T20:01:45.524Z,99.90
2024-02-20T20:04:14.051Z,99.90
2024-02-20T20:06:46.085Z,99.90
2024-02-20T20:09:15.152Z,99.90
2024-02-20T20:11:44.412Z,99.90
2024-02-20T20:14:12.492Z,99.90
2024-02-20T20:16:40.191Z,99.90
2024-02-20T20:19:09.534Z,99.90
2024-02-20T20:21:37.542Z,99.90
2024-02-20T20:24:14.471Z,99.90
2024-02-20T20:26:46.840Z,99.90
2024-02-20T20:29:14.451Z,99.90
2024-02-20T20:31:42.789Z,99.90
2024-02-20T20:34:11.500Z,99.90
2024-02-20T20:36:42.513Z,99.90
2024-02-20T20:39:10.165Z,99.90
2024-02-20T20:41:37.674Z,99.90
2024-02-20T20:44:05.727Z,99.90
2024-02-20T20:46:33.435Z,99.90
2024-02-20T20:49:01.185Z,99.90
2024-02-20T20:51:29.748Z,99.90
2024-02-20T20:53:57.270Z,99.90
2024-02-20T20:56:24.856Z,99.90
2024-02-20T20:58:52.580Z,99.90
2024-02-20T21:01:20.331Z,99.90
2024-02-20T21:03:47.739Z,99.90
2024-02-20T21:06:18.054Z,99.90
2024-02-20T21:08:45.621Z,99.90
2024-02-20T21:11:13.120Z,99.90
2024-02-20T21:13:40.787Z,99.90
2024-02-20T21:16:08.405Z,99.90
2024-02-20T21:18:35.986Z,99.90
2024-02-20T21:21:08.582Z,99.90
2024-02-20T21:23:36.590Z,99.90
2024-02-20T21:26:07.791Z,99.90
2024-02-20T21:28:40.594Z,99.90
2024-02-20T21:31:08.028Z,99.90
2024-02-20T21:33:35.743Z,99.90
2024-02-20T21:36:06.022Z,99.90
2024-02-20T21:38:36.889Z,99.90
2024-02-20T21:41:04.745Z,99.90
2024-02-20T21:43:32.364Z,99.90
2024-02-20T21:45:59.929Z,99.90
2024-02-20T21:48:27.485Z,99.90
2024-02-20T21:50:55.419Z,99.90
2024-02-20T21:53:23.349Z,99.90
2024-02-20T21:55:50.945Z,99.90
2024-02-20T21:58:18.416Z,99.90
2024-02-20T22:00:45.910Z,99.90
2024-02-20T22:03:13.490Z,99.90
2024-02-20T22:05:42.104Z,99.90
2024-02-20T22:08:10.527Z,99.90
2024-02-20T22:10:38.119Z,99.90
2024-02-20T22:13:05.721Z,99.90
2024-02-20T22:15:33.180Z,99.90
2024-02-20T22:18:00.640Z,99.90
2024-02-20T22:20:28.136Z,99.90
2024-02-20T22:22:58.360Z,99.90
2024-02-20T22:25:26.827Z,99.90
2024-02-20T22:27:54.173Z,99.90
2024-02-20T22:30:21.697Z,99.90
2024-02-20T22:32:49.355Z,99.90
2024-02-20T22:35:17.064Z,99.90
2024-02-20T22:37:44.503Z,99.90
2024-02-20T22:40:13.289Z,99.90
2024-02-20T22:42:40.743Z,99.90
2024-02-20T22:45:08.570Z,99.90
2024-02-20T22:47:36.050Z,99.90
2024-02-20T22:50:03.753Z,99.90
2024-02-20T22:52:31.466Z,99.90
2024-02-20T22:54:59.606Z,99.90
2024-02-20T22:57:27.146Z,99.90
2024-02-20T22:59:55.137Z,99.90
2024-02-20T23:02:23.514Z,99.90
2024-02-20T23:04:51.509Z,99.90
2024-02-20T23:07:19.122Z,99.90
2024-02-20T23:09:46.712Z,99.90
2024-02-20T23:12:15.066Z,99.90
2024-02-20T23:14:42.836Z,99.90
2024-02-20T23:17:10.724Z,99.90
2024-02-20T23:19:39.488Z,99.90
2024-02-20T23:22:07.305Z,99.90
2024-02-20T23:24:34.878Z,99.90
2024-02-20T23:27:02.214Z,99.90
2024-02-20T23:29:30.044Z,99.90
2024-02-20T23:31:58.426Z,99.90
2024-02-20T23:34:26.114Z,99.90
2024-02-20T23:36:53.709Z,99.90
2024-02-20T23:39:21.071Z,99.90
2024-02-20T23:41:48.581Z,99.90
2024-02-20T23:44:15.875Z,99.90
2024-02-20T23:46:43.451Z,99.90
2024-02-20T23:49:11.088Z,99.90
2024-02-20T23:51:38.765Z,99.90
2024-02-20T23:54:06.518Z,99.90
2024-02-20T23:56:33.973Z,99.90
2024-02-20T23:59:01.483Z,99.90
